Time,TemperatureF,DewpointF,PressureIn,WindDirection,WindDirectionDegrees,WindSpeedMPH,WindSpeedGustMPH,Humidity,HourlyPrecipIn,Conditions,Clouds,dailyrainin,SolarRadiationWatts/m^2,SoftwareType,DateUTC
2013-03-06 00:06:00,32.7,28.0,29.97,NW,305,0.0,-999.0,84,-99.99,,,0.00,0,weatherlink.com 1.10,2013-03-05 23:06:00,
2013-03-06 00:20:00,32.4,28.0,29.97,NW,305,0.0,-999.0,84,-99.99,,,0.00,0,weatherlink.com 1.10,2013-03-05 23:20:00,
2013-03-06 00:36:00,32.1,28.0,29.96,NW,305,0.0,-999.0,84,-99.99,,,0.00,0,weatherlink.com 1.10,2013-03-05 23:36:00,
2013-03-06 00:51:00,32.0,28.0,29.96,NW,305,0.0,-999.0,85,-99.99,,,0.00,0,weatherlink.com 1.10,2013-03-05 23:51:00,
2013-03-06 01:06:00,31.9,28.0,29.96,NW,305,0.0,-999.0,84,-99.99,,,0.00,0,weatherlink.com 1.10,2013-03-06 00:06:00,
2013-03-06 01:21:00,31.8,28.0,29.97,NW,305,0.0,-999.0,85,-99.99,,,0.00,0,weatherlink.com 1.10,2013-03-06 00:21:00,
2013-03-06 01:36:00,31.6,28.0,29.96,NW,305,0.0,-999.0,85,-99.99,,,0.00,0,weatherlink.com 1.10,2013-03-06 00:36:00,
2013-03-06 01:51:00,31.8,28.0,29.95,NW,305,0.0,-999.0,85,-99.99,,,0.00,0,weatherlink.com 1.10,2013-03-06 00:51:00,
2013-03-06 02:06:00,31.6,28.0,29.95,NW,305,0.0,-999.0,85,-99.99,,,0.00,0,weatherlink.com 1.10,2013-03-06 01:06:00,
2013-03-06 02:21:00,31.7,28.0,29.95,NW,305,0.0,-999.0,85,-99.99,,,0.00,0,weatherlink.com 1.10,2013-03-06 01:21:00,
2013-03-06 02:36:00,31.4,27.0,29.95,NW,305,0.0,-999.0,85,-99.99,,,0.00,0,weatherlink.com 1.10,2013-03-06 01:36:00,
2013-03-06 02:51:00,30.9,27.0,29.95,NW,305,0.0,-999.0,85,-99.99,,,0.00,0,weatherlink.com 1.10,2013-03-06 01:51:00,
2013-03-06 03:05:00,30.6,27.0,29.94,NW,305,0.0,-999.0,86,-99.99,,,0.00,0,weatherlink.com 1.10,2013-03-06 02:05:00,
2013-03-06 03:21:00,30.2,27.0,29.94,NW,305,0.0,-999.0,87,-99.99,,,0.00,0,weatherlink.com 1.10,2013-03-06 02:21:00,
2013-03-06 03:36:00,29.9,27.0,29.93,NW,305,0.0,-999.0,88,-99.99,,,0.00,0,weatherlink.com 1.10,2013-03-06 02:36:00,
2013-03-06 03:51:00,29.9,27.0,29.93,NW,305,0.0,-999.0,88,-99.99,,,0.00,0,weatherlink.com 1.10,2013-03-06 02:51:00,
2013-03-06 04:06:00,29.8,27.0,29.93,NW,305,0.0,-999.0,88,-99.99,,,0.00,0,weatherlink.com 1.10,2013-03-06 03:06:00,
2013-03-06 04:20:00,29.6,27.0,29.92,NW,305,0.0,-999.0,89,-99.99,,,0.00,0,weatherlink.com 1.10,2013-03-06 03:20:00,
2013-03-06 04:36:00,29.6,27.0,29.92,NW,305,0.0,-999.0,89,-99.99,,,0.00,0,weatherlink.com 1.10,2013-03-06 03:36:00,
2013-03-06 04:51:00,29.4,27.0,29.92,NW,305,0.0,-999.0,89,-99.99,,,0.00,0,weatherlink.com 1.10,2013-03-06 03:51:00,
2013-03-06 05:06:00,29.3,27.0,29.92,NW,305,0.0,-999.0,90,-99.99,,,0.00,0,weatherlink.com 1.10,2013-03-06 04:06:00,
2013-03-06 05:21:00,29.3,27.0,29.92,NW,305,0.0,-999.0,90,-99.99,,,0.00,0,weatherlink.com 1.10,2013-03-06 04:21:00,
2013-03-06 05:35:00,29.2,27.0,29.92,NW,305,0.0,-999.0,90,-99.99,,,0.00,0,weatherlink.com 1.10,2013-03-06 04:35:00,
2013-03-06 05:50:00,29.0,27.0,29.91,NW,305,0.0,-999.0,90,-99.99,,,0.00,0,weatherlink.com 1.10,2013-03-06 04:50:00,
2013-03-06 06:05:00,29.0,27.0,29.91,NW,305,0.0,-999.0,90,-99.99,,,0.00,0,weatherlink.com 1.10,2013-03-06 05:05:00,
2013-03-06 06:36:00,28.8,27.0,29.91,NW,305,0.0,-999.0,91,-99.99,,,0.00,0,weatherlink.com 1.10,2013-03-06 05:36:00,
2013-03-06 06:50:00,28.6,26.0,29.90,NW,305,0.0,-999.0,91,-99.99,,,0.00,9,weatherlink.com 1.10,2013-03-06 05:50:00,
2013-03-06 07:06:00,28.7,26.0,29.90,NW,305,0.0,-999.0,91,-99.99,,,0.00,14,weatherlink.com 1.10,2013-03-06 06:06:00,
2013-03-06 07:20:00,29.2,27.0,29.90,NW,305,0.0,-999.0,91,-99.99,,,0.00,23,weatherlink.com 1.10,2013-03-06 06:20:00,
2013-03-06 07:36:00,29.4,27.0,29.91,NW,305,0.0,-999.0,91,-99.99,,,0.00,26,weatherlink.com 1.10,2013-03-06 06:36:00,
2013-03-06 07:51:00,30.3,28.0,29.91,NW,305,0.0,-999.0,91,-99.99,,,0.00,32,weatherlink.com 1.10,2013-03-06 06:51:00,
2013-03-06 08:05:00,30.7,28.0,29.91,NW,305,0.0,-999.0,91,-99.99,,,0.00,37,weatherlink.com 1.10,2013-03-06 07:05:00,
2013-03-06 08:21:00,31.7,29.0,29.91,NW,305,0.0,-999.0,90,-99.99,,,0.00,46,weatherlink.com 1.10,2013-03-06 07:21:00,
2013-03-06 08:35:00,32.8,30.0,29.91,NW,305,0.0,-999.0,88,-99.99,,,0.00,49,weatherlink.com 1.10,2013-03-06 07:35:00,
2013-03-06 08:51:00,34.2,30.0,29.91,NW,305,0.0,-999.0,85,-99.99,,,0.00,51,weatherlink.com 1.10,2013-03-06 07:51:00,
2013-03-06 09:06:00,35.1,30.0,29.91,NW,305,1.0,-999.0,83,-99.99,,,0.00,58,weatherlink.com 1.10,2013-03-06 08:06:00,
2013-03-06 09:21:00,36.4,31.0,29.90,West,273,1.0,-999.0,81,-99.99,,,0.00,62,weatherlink.com 1.10,2013-03-06 08:21:00,
2013-03-06 09:36:00,37.3,31.0,29.90,NNW,329,0.0,-999.0,79,-99.99,,,0.00,67,weatherlink.com 1.10,2013-03-06 08:36:00,
2013-03-06 09:51:00,39.0,32.0,29.90,NNW,346,0.0,-999.0,75,-99.99,,,0.00,388,weatherlink.com 1.10,2013-03-06 08:51:00,
2013-03-06 10:06:00,40.5,32.0,29.90,West,266,0.0,-999.0,73,-99.99,,,0.00,417,weatherlink.com 1.10,2013-03-06 09:06:00,
2013-03-06 10:21:00,41.7,33.0,29.89,West,266,0.0,-999.0,70,-99.99,,,0.00,439,weatherlink.com 1.10,2013-03-06 09:21:00,
2013-03-06 10:36:00,42.5,33.0,29.88,West,266,0.0,-999.0,69,-99.99,,,0.00,457,weatherlink.com 1.10,2013-03-06 09:36:00,
2013-03-06 10:50:00,43.7,33.0,29.88,NNE,23,0.0,-999.0,67,-99.99,,,0.00,478,weatherlink.com 1.10,2013-03-06 09:50:00,
2013-03-06 11:06:00,44.5,33.0,29.87,NNE,26,0.0,-999.0,65,-99.99,,,0.00,482,weatherlink.com 1.10,2013-03-06 10:06:00,
2013-03-06 11:21:00,45.5,33.0,29.87,NE,42,0.0,-999.0,63,-99.99,,,0.00,499,weatherlink.com 1.10,2013-03-06 10:21:00,
2013-03-06 11:36:00,46.3,34.0,29.86,NE,35,0.0,-999.0,63,-99.99,,,0.00,506,weatherlink.com 1.10,2013-03-06 10:36:00,
2013-03-06 11:50:00,46.2,33.0,29.86,NNE,12,0.0,-999.0,60,-99.99,,,0.00,438,weatherlink.com 1.10,2013-03-06 10:50:00,
2013-03-06 12:06:00,47.2,33.0,29.85,NNW,346,0.0,-999.0,59,-99.99,,,0.00,504,weatherlink.com 1.10,2013-03-06 11:06:00,
2013-03-06 12:21:00,48.2,34.0,29.85,ENE,58,1.0,-999.0,58,-99.99,,,0.00,510,weatherlink.com 1.10,2013-03-06 11:21:00,
2013-03-06 12:36:00,48.8,34.0,29.84,North,357,0.0,-999.0,58,-99.99,,,0.00,338,weatherlink.com 1.10,2013-03-06 11:36:00,
2013-03-06 12:51:00,48.1,35.0,29.83,NE,40,0.0,-999.0,60,-99.99,,,0.00,339,weatherlink.com 1.10,2013-03-06 11:51:00,
2013-03-06 13:06:00,48.9,35.0,29.83,North,10,1.0,-999.0,59,-99.99,,,0.00,485,weatherlink.com 1.10,2013-03-06 12:06:00,
2013-03-06 13:21:00,49.6,35.0,29.83,NE,38,1.0,-999.0,58,-99.99,,,0.00,478,weatherlink.com 1.10,2013-03-06 12:21:00,
2013-03-06 13:36:00,50.0,36.0,29.82,NE,46,1.0,-999.0,58,-99.99,,,0.00,462,weatherlink.com 1.10,2013-03-06 12:36:00,
2013-03-06 13:51:00,50.6,36.0,29.82,ENE,58,0.0,-999.0,58,-99.99,,,0.00,404,weatherlink.com 1.10,2013-03-06 12:51:00,
2013-03-06 14:06:00,50.5,36.0,29.81,NNW,343,0.0,-999.0,57,-99.99,,,0.00,392,weatherlink.com 1.10,2013-03-06 13:06:00,
2013-03-06 14:21:00,50.5,36.0,29.81,NW,306,1.0,-999.0,57,-99.99,,,0.00,186,weatherlink.com 1.10,2013-03-06 13:21:00,
2013-03-06 14:36:00,50.5,36.0,29.81,NE,45,1.0,-999.0,58,-99.99,,,0.00,169,weatherlink.com 1.10,2013-03-06 13:36:00,
2013-03-06 14:50:00,50.3,36.0,29.80,NE,38,0.0,-999.0,59,-99.99,,,0.00,234,weatherlink.com 1.10,2013-03-06 13:50:00,
2013-03-06 15:05:00,51.0,37.0,29.80,ENE,57,0.0,-999.0,59,-99.99,,,0.00,186,weatherlink.com 1.10,2013-03-06 14:05:00,
2013-03-06 15:21:00,51.3,37.0,29.80,North,9,0.0,-999.0,59,-99.99,,,0.00,155,weatherlink.com 1.10,2013-03-06 14:21:00,
2013-03-06 15:36:00,51.4,37.0,29.80,NW,324,0.0,-999.0,59,-99.99,,,0.00,130,weatherlink.com 1.10,2013-03-06 14:36:00,
2013-03-06 15:51:00,51.6,37.0,29.79,NE,52,2.0,-999.0,59,-99.99,,,0.00,146,weatherlink.com 1.10,2013-03-06 14:51:00,
2013-03-06 16:06:00,52.1,38.0,29.79,ENE,62,0.0,-999.0,58,-99.99,,,0.00,130,weatherlink.com 1.10,2013-03-06 15:06:00,
2013-03-06 16:21:00,52.3,38.0,29.78,NE,51,0.0,-999.0,58,-99.99,,,0.00,116,weatherlink.com 1.10,2013-03-06 15:21:00,
2013-03-06 16:36:00,51.7,38.0,29.77,North,10,0.0,-999.0,59,-99.99,,,0.00,58,weatherlink.com 1.10,2013-03-06 15:36:00,
2013-03-06 16:51:00,51.0,37.0,29.77,North,10,0.0,-999.0,60,-99.99,,,0.00,39,weatherlink.com 1.10,2013-03-06 15:51:00,
2013-03-06 17:06:00,50.7,38.0,29.77,North,10,0.0,-999.0,61,-99.99,,,0.00,30,weatherlink.com 1.10,2013-03-06 16:06:00,
2013-03-06 17:21:00,49.8,38.0,29.77,North,10,0.0,-999.0,63,-99.99,,,0.00,23,weatherlink.com 1.10,2013-03-06 16:21:00,
2013-03-06 17:37:00,48.6,38.0,29.77,North,10,0.0,-999.0,66,-99.99,,,0.00,12,weatherlink.com 1.10,2013-03-06 16:37:00,
2013-03-06 17:51:00,47.7,37.0,29.77,North,10,0.0,-999.0,67,-99.99,,,0.00,0,weatherlink.com 1.10,2013-03-06 16:51:00,
2013-03-06 18:06:00,46.2,37.0,29.77,North,10,0.0,-999.0,70,-99.99,,,0.00,0,weatherlink.com 1.10,2013-03-06 17:06:00,
2013-03-06 18:21:00,45.0,36.0,29.77,North,10,0.0,-999.0,72,-99.99,,,0.00,0,weatherlink.com 1.10,2013-03-06 17:21:00,
2013-03-06 18:37:00,44.5,36.0,29.77,North,10,0.0,-999.0,73,-99.99,,,0.00,0,weatherlink.com 1.10,2013-03-06 17:37:00,
2013-03-06 18:51:00,44.2,36.0,29.77,North,10,0.0,-999.0,74,-99.99,,,0.00,0,weatherlink.com 1.10,2013-03-06 17:51:00,
2013-03-06 19:06:00,43.4,36.0,29.77,North,10,0.0,-999.0,75,-99.99,,,0.00,0,weatherlink.com 1.10,2013-03-06 18:06:00,
2013-03-06 19:21:00,42.7,35.0,29.77,North,10,0.0,-999.0,75,-99.99,,,0.00,0,weatherlink.com 1.10,2013-03-06 18:21:00,
2013-03-06 19:36:00,42.5,35.0,29.77,North,10,0.0,-999.0,76,-99.99,,,0.00,0,weatherlink.com 1.10,2013-03-06 18:36:00,
2013-03-06 19:51:00,42.5,35.0,29.77,North,10,0.0,-999.0,76,-99.99,,,0.00,0,weatherlink.com 1.10,2013-03-06 18:51:00,
2013-03-06 20:06:00,42.2,35.0,29.78,North,10,0.0,-999.0,76,-99.99,,,0.00,0,weatherlink.com 1.10,2013-03-06 19:06:00,
2013-03-06 20:22:00,41.7,35.0,29.76,North,10,0.0,-999.0,77,-99.99,,,0.00,0,weatherlink.com 1.10,2013-03-06 19:22:00,
2013-03-06 20:36:00,41.6,35.0,29.76,North,10,0.0,-999.0,77,-99.99,,,0.00,0,weatherlink.com 1.10,2013-03-06 19:36:00,
2013-03-06 20:51:00,41.0,34.0,29.76,North,10,0.0,-999.0,77,-99.99,,,0.00,0,weatherlink.com 1.10,2013-03-06 19:51:00,
2013-03-06 21:06:00,40.7,34.0,29.76,North,10,0.0,-999.0,78,-99.99,,,0.00,0,weatherlink.com 1.10,2013-03-06 20:06:00,
2013-03-06 21:21:00,40.2,35.0,29.76,North,10,0.0,-999.0,80,-99.99,,,0.00,0,weatherlink.com 1.10,2013-03-06 20:21:00,
2013-03-06 21:36:00,40.1,34.0,29.76,North,10,0.0,-999.0,80,-99.99,,,0.00,0,weatherlink.com 1.10,2013-03-06 20:36:00,
2013-03-06 21:51:00,39.1,33.0,29.76,North,10,0.0,-999.0,80,-99.99,,,0.00,0,weatherlink.com 1.10,2013-03-06 20:51:00,
2013-03-06 22:06:00,38.6,34.0,29.75,North,10,0.0,-999.0,82,-99.99,,,0.00,0,weatherlink.com 1.10,2013-03-06 21:06:00,
2013-03-06 22:21:00,38.6,34.0,29.75,North,10,0.0,-999.0,83,-99.99,,,0.00,0,weatherlink.com 1.10,2013-03-06 21:21:00,
2013-03-06 22:36:00,38.7,34.0,29.74,North,10,0.0,-999.0,83,-99.99,,,0.00,0,weatherlink.com 1.10,2013-03-06 21:36:00,
2013-03-06 22:51:00,38.9,34.0,29.74,North,10,0.0,-999.0,83,-99.99,,,0.00,0,weatherlink.com 1.10,2013-03-06 21:51:00,
2013-03-06 23:21:00,38.9,35.0,29.74,North,10,0.0,-999.0,85,-99.99,,,0.00,0,weatherlink.com 1.10,2013-03-06 22:21:00,
2013-03-06 23:36:00,39.1,35.0,29.74,North,10,0.0,-999.0,85,-99.99,,,0.00,0,weatherlink.com 1.10,2013-03-06 22:36:00,
2013-03-06 23:51:00,39.4,36.0,29.74,North,10,0.0,-999.0,86,-99.99,,,0.00,0,weatherlink.com 1.10,2013-03-06 22:51:00,